Time;durP1;ratioP1;P1;durP2;ratioP2;P2;SDS_P1;SDS_P2;PMS_P1;PMS_P2;Temp;Humidity;BMP_temperature;BMP_pressure;BME280_temperature;BME280_humidity;BME280_pressure;Samples;Min_cycle;Max_cycle;Signal;HPM_P1;HPM_P2
2022/07/24 00:00:08;;;;;;;9.95;9.05;;;;;;;;;;2086147;28;20207;-66
2022/07/24 00:01:17;;;;;;;12.90;11.55;;;;;;;;;;2085279;28;20171;-65
2022/07/24 00:02:18;;;;;;;11.23;9.90;;;;;;;;;;2091028;28;20272;-65
2022/07/24 00:03:19;;;;;;;7.10;6.60;;;;;;;;;;2090437;28;20862;-68
2022/07/24 00:04:19;;;;;;;8.20;7.50;;;;;;;;;;2081542;28;20180;-68
2022/07/24 00:05:19;;;;;;;7.63;7.03;;;;;;;;;;2082065;28;21660;-67
2022/07/24 00:06:19;;;;;;;7.68;7.07;;;;;;;;;;2082515;28;20248;-67
2022/07/24 00:07:20;;;;;;;9.50;8.70;;;;;;;;;;2082208;28;20180;-65
2022/07/24 00:08:20;;;;;;;7.03;6.53;;;;;;;;;;2074092;28;20177;-65
2022/07/24 00:09:21;;;;;;;8.82;7.53;;;;;;;;;;2073762;28;20187;-65
2022/07/24 00:10:23;;;;;;;7.13;6.53;;;;;;;;;;2082490;28;20258;-64
2022/07/24 00:11:23;;;;;;;7.38;6.68;;;;;;;;;;2082250;23;20228;-66
2022/07/24 00:12:24;;;;;;;7.03;6.32;;;;;;;;;;2083556;28;20551;-65
2022/07/24 00:13:24;;;;;;;5.90;5.30;;;;;;;;;;2081241;28;20732;-66
2022/07/24 00:14:25;;;;;;;7.20;5.72;;;;;;;;;;2080401;28;20275;-66
2022/07/24 00:15:25;;;;;;;8.75;7.97;;;;;;;;;;2088541;28;20196;-66
2022/07/24 00:16:26;;;;;;;6.43;5.75;;;;;;;;;;2090038;28;20667;-66
2022/07/24 00:17:26;;;;;;;7.50;6.85;;;;;;;;;;2089791;28;20179;-66
2022/07/24 00:18:26;;;;;;;7.70;7.10;;;;;;;;;;2089838;28;20559;-65
2022/07/24 00:19:27;;;;;;;8.68;6.13;;;;;;;;;;2088026;28;20172;-63
2022/07/24 00:20:27;;;;;;;6.15;5.60;;;;;;;;;;2086522;28;20543;-65
2022/07/24 00:21:27;;;;;;;6.55;6.05;;;;;;;;;;2087117;28;20199;-66
2022/07/24 00:22:28;;;;;;;9.57;7.75;;;;;;;;;;2080047;28;20188;-65
2022/07/24 00:23:28;;;;;;;6.78;6.18;;;;;;;;;;2073294;28;20604;-67
2022/07/24 00:24:29;;;;;;;6.05;5.65;;;;;;;;;;2079487;28;20235;-66
2022/07/24 00:25:29;;;;;;;6.53;5.68;;;;;;;;;;2089486;28;20175;-66
2022/07/24 00:26:29;;;;;;;7.57;5.75;;;;;;;;;;2088942;28;20557;-66
2022/07/24 00:27:30;;;;;;;6.43;5.97;;;;;;;;;;2089349;28;20190;-65
2022/07/24 00:28:30;;;;;;;6.57;6.00;;;;;;;;;;2085101;28;20168;-66
2022/07/24 00:29:30;;;;;;;6.68;6.00;;;;;;;;;;2089756;28;20229;-66
2022/07/24 00:30:31;;;;;;;6.40;5.90;;;;;;;;;;2089318;28;20641;-66
2022/07/24 00:31:31;;;;;;;6.60;6.10;;;;;;;;;;2089425;28;20210;-66
2022/07/24 00:32:31;;;;;;;6.15;5.65;;;;;;;;;;2089747;28;20648;-67
2022/07/24 00:33:32;;;;;;;6.05;5.55;;;;;;;;;;2089698;28;20211;-65
2022/07/24 00:34:32;;;;;;;5.85;5.38;;;;;;;;;;2088823;28;20198;-67
2022/07/24 00:35:33;;;;;;;7.20;6.50;;;;;;;;;;2089685;28;20178;-67
2022/07/24 00:36:33;;;;;;;6.03;5.53;;;;;;;;;;2089711;28;20163;-65
2022/07/24 00:37:33;;;;;;;6.03;5.53;;;;;;;;;;2081368;28;20664;-66
2022/07/24 00:38:34;;;;;;;5.72;5.32;;;;;;;;;;2079922;28;20172;-65
2022/07/24 00:39:34;;;;;;;5.55;5.15;;;;;;;;;;2089499;28;20195;-65
2022/07/24 00:40:34;;;;;;;6.00;5.55;;;;;;;;;;2080533;28;20280;-66
2022/07/24 00:41:35;;;;;;;6.78;6.03;;;;;;;;;;2072264;28;20274;-66
2022/07/24 00:42:35;;;;;;;6.53;5.93;;;;;;;;;;2081305;28;20179;-67
2022/07/24 00:43:55;;;;;;;6.13;5.53;;;;;;;;;;2081310;28;20722;-66
2022/07/24 00:44:56;;;;;;;5.65;5.30;;;;;;;;;;2073771;28;20216;-64
2022/07/24 00:45:56;;;;;;;6.63;6.00;;;;;;;;;;2079898;28;20245;-64
2022/07/24 00:46:56;;;;;;;6.55;5.95;;;;;;;;;;2089686;28;20171;-64
2022/07/24 00:47:57;;;;;;;5.57;5.15;;;;;;;;;;2090130;28;20175;-65
2022/07/24 00:48:57;;;;;;;5.65;5.25;;;;;;;;;;2089977;28;20541;-63
2022/07/24 00:49:58;;;;;;;5.03;4.72;;;;;;;;;;2089976;28;20651;-66
2022/07/24 00:50:58;;;;;;;6.10;5.53;;;;;;;;;;2081780;28;20204;-66
2022/07/24 00:51:58;;;;;;;5.60;5.30;;;;;;;;;;2080885;28;20259;-63
2022/07/24 00:52:59;;;;;;;6.10;5.53;;;;;;;;;;2089900;28;20591;-66
2022/07/24 00:53:59;;;;;;;6.80;5.88;;;;;;;;;;2089365;28;20530;-65
2022/07/24 00:55:00;;;;;;;6.18;5.68;;;;;;;;;;2090182;28;20198;-65
2022/07/24 00:56:00;;;;;;;6.25;5.85;;;;;;;;;;2087190;28;20175;-67
2022/07/24 00:57:00;;;;;;;6.40;5.80;;;;;;;;;;2085249;28;20214;-66
2022/07/24 00:58:01;;;;;;;6.53;5.82;;;;;;;;;;2090349;28;20178;-66
2022/07/24 00:59:02;;;;;;;6.10;5.47;;;;;;;;;;2090349;28;20160;-65
2022/07/24 01:00:06;;;;;;;5.93;5.40;;;;;;;;;;2090291;28;20178;-66
2022/07/24 01:01:06;;;;;;;6.20;5.70;;;;;;;;;;2090027;28;20187;-66
2022/07/24 01:02:06;;;;;;;6.07;5.47;;;;;;;;;;2072849;28;20202;-64
2022/07/24 01:03:07;;;;;;;6.03;5.53;;;;;;;;;;2073397;28;20180;-66
2022/07/24 01:04:07;;;;;;;5.55;5.15;;;;;;;;;;2072065;28;20272;-65
2022/07/24 01:05:09;;;;;;;5.78;5.28;;;;;;;;;;2073138;28;20248;-65
2022/07/24 01:06:09;;;;;;;5.63;5.28;;;;;;;;;;2072681;28;20172;-65
2022/07/24 01:07:11;;;;;;;6.28;5.88;;;;;;;;;;2081213;28;20196;-66
2022/07/24 01:08:11;;;;;;;6.50;6.00;;;;;;;;;;2089600;28;20545;-63
2022/07/24 01:09:11;;;;;;;5.97;5.47;;;;;;;;;;2081390;28;20279;-67
2022/07/24 01:10:12;;;;;;;6.43;5.85;;;;;;;;;;2081087;28;20692;-65
2022/07/24 01:11:12;;;;;;;6.13;5.63;;;;;;;;;;2089753;28;20688;-65
2022/07/24 01:12:13;;;;;;;6.00;5.57;;;;;;;;;;2090038;28;20194;-65
2022/07/24 01:13:13;;;;;;;6.63;6.03;;;;;;;;;;2090806;28;20717;-67
2022/07/24 01:14:14;;;;;;;6.15;5.65;;;;;;;;;;2089878;28;20576;-66
2022/07/24 01:15:15;;;;;;;6.28;5.78;;;;;;;;;;2090925;28;20175;-66
2022/07/24 01:16:15;;;;;;;6.25;5.72;;;;;;;;;;2082342;28;20560;-65
2022/07/24 01:17:16;;;;;;;6.63;6.13;;;;;;;;;;2082448;28;20207;-66
2022/07/24 01:18:16;;;;;;;6.45;5.88;;;;;;;;;;2090884;28;20210;-67
2022/07/24 01:19:17;;;;;;;6.22;5.72;;;;;;;;;;2089776;28;20167;-66
2022/07/24 01:20:17;;;;;;;6.68;6.10;;;;;;;;;;2074041;28;20729;-65
2022/07/24 01:21:17;;;;;;;6.00;5.40;;;;;;;;;;2075161;28;20219;-65
2022/07/24 01:22:18;;;;;;;6.10;5.60;;;;;;;;;;2082000;28;20168;-68
2022/07/24 01:23:18;;;;;;;6.03;5.43;;;;;;;;;;2073606;28;20188;-65
2022/07/24 01:24:19;;;;;;;8.93;6.00;;;;;;;;;;2080792;28;20179;-66
2022/07/24 01:25:19;;;;;;;7.00;6.30;;;;;;;;;;2090481;28;20545;-66
2022/07/24 01:26:20;;;;;;;6.30;5.80;;;;;;;;;;2090275;28;20186;-65
2022/07/24 01:27:21;;;;;;;5.88;5.38;;;;;;;;;;2081641;28;20216;-65
2022/07/24 01:28:21;;;;;;;6.10;5.50;;;;;;;;;;2082039;28;20641;-65
2022/07/24 01:29:22;;;;;;;5.68;5.28;;;;;;;;;;2081253;28;20175;-65
2022/07/24 01:30:22;;;;;;;6.40;5.95;;;;;;;;;;2090273;28;20199;-67
2022/07/24 01:31:22;;;;;;;6.32;5.72;;;;;;;;;;2081265;28;20213;-67
2022/07/24 01:32:23;;;;;;;5.80;5.40;;;;;;;;;;2088744;28;20176;-66
2022/07/24 01:33:23;;;;;;;5.45;5.05;;;;;;;;;;2090820;28;20164;-66
2022/07/24 01:34:24;;;;;;;5.90;5.43;;;;;;;;;;2088457;28;20199;-66
2022/07/24 01:35:24;;;;;;;5.78;5.38;;;;;;;;;;2091313;28;20160;-70
2022/07/24 01:36:25;;;;;;;5.93;5.53;;;;;;;;;;2090812;28;20628;-66
2022/07/24 01:37:25;;;;;;;5.80;5.40;;;;;;;;;;2090791;28;20209;-67
2022/07/24 01:38:26;;;;;;;5.97;5.47;;;;;;;;;;2090914;28;20657;-65
2022/07/24 01:39:26;;;;;;;6.85;6.13;;;;;;;;;;2090245;28;20176;-66
2022/07/24 01:40:27;;;;;;;6.10;5.50;;;;;;;;;;2090426;28;20179;-65
2022/07/24 01:41:27;;;;;;;6.60;6.03;;;;;;;;;;2091021;28;20239;-68
2022/07/24 01:42:27;;;;;;;5.47;5.07;;;;;;;;;;2091409;28;20690;-66
2022/07/24 01:43:27;;;;;;;5.88;5.40;;;;;;;;;;2091518;28;20175;-66
2022/07/24 01:44:28;;;;;;;6.40;5.90;;;;;;;;;;2090883;28;20264;-65
2022/07/24 01:45:28;;;;;;;6.28;5.78;;;;;;;;;;2083636;28;20164;-66
2022/07/24 01:46:28;;;;;;;6.30;5.80;;;;;;;;;;2075798;28;20184;-64
2022/07/24 01:47:29;;;;;;;5.50;5.07;;;;;;;;;;2084219;28;20231;-67
2022/07/24 01:48:29;;;;;;;6.75;6.13;;;;;;;;;;2085138;28;20263;-68
2022/07/24 01:49:30;;;;;;;6.25;5.85;;;;;;;;;;2093321;28;20619;-67
2022/07/24 01:50:31;;;;;;;6.25;5.65;;;;;;;;;;2093322;28;20175;-67
2022/07/24 01:51:31;;;;;;;5.45;5.05;;;;;;;;;;2092121;28;20223;-66
2022/07/24 01:52:31;;;;;;;5.78;5.38;;;;;;;;;;2092757;28;20168;-65
2022/07/24 01:53:32;;;;;;;6.68;5.85;;;;;;;;;;2092940;28;20175;-67
2022/07/24 01:54:32;;;;;;;5.93;5.53;;;;;;;;;;2083450;28;20652;-65
2022/07/24 01:55:32;;;;;;;5.50;5.10;;;;;;;;;;2084642;28;20645;-64
2022/07/24 01:56:33;;;;;;;6.55;6.00;;;;;;;;;;2068348;28;20204;-65
2022/07/24 01:57:34;;;;;;;6.70;6.15;;;;;;;;;;2069105;28;20268;-67
2022/07/24 01:58:34;;;;;;;6.55;5.78;;;;;;;;;;2075986;28;20173;-67
2022/07/24 01:59:34;;;;;;;6.60;6.18;;;;;;;;;;2091646;28;20167;-66
2022/07/24 02:00:35;;;;;;;6.85;5.65;;;;;;;;;;2092874;28;20179;-67
2022/07/24 02:01:35;;;;;;;6.57;5.90;;;;;;;;;;2094307;28;20187;-66
2022/07/24 02:02:35;;;;;;;6.13;5.65;;;;;;;;;;2093932;28;20175;-66
2022/07/24 02:03:36;;;;;;;6.15;5.57;;;;;;;;;;2092203;28;20188;-65
2022/07/24 02:04:36;;;;;;;8.30;6.30;;;;;;;;;;2090260;28;20184;-65
2022/07/24 02:05:36;;;;;;;7.32;5.85;;;;;;;;;;2090575;28;20608;-67
2022/07/24 02:06:37;;;;;;;6.72;6.22;;;;;;;;;;2090557;28;20321;-64
2022/07/24 02:07:37;;;;;;;6.53;6.00;;;;;;;;;;2082848;28;20660;-63
2022/07/24 02:08:37;;;;;;;6.50;5.90;;;;;;;;;;2084180;28;20566;-66
2022/07/24 02:09:38;;;;;;;5.55;5.15;;;;;;;;;;2091649;28;20694;-65
2022/07/24 02:10:39;;;;;;;6.22;5.75;;;;;;;;;;2091429;28;20214;-66
2022/07/24 02:11:39;;;;;;;6.05;5.65;;;;;;;;;;2092453;28;20207;-65
2022/07/24 02:12:40;;;;;;;6.90;6.40;;;;;;;;;;2091527;28;20509;-65
2022/07/24 02:13:40;;;;;;;6.63;5.95;;;;;;;;;;2092551;28;20187;-66
2022/07/24 02:14:40;;;;;;;6.38;5.88;;;;;;;;;;2091968;28;20682;-64
2022/07/24 02:15:41;;;;;;;6.18;5.53;;;;;;;;;;2084567;28;20168;-66
2022/07/24 02:16:41;;;;;;;6.38;5.97;;;;;;;;;;2084070;28;20180;-67
2022/07/24 02:17:45;;;;;;;6.65;6.05;;;;;;;;;;2093307;28;20164;-66
2022/07/24 02:18:46;;;;;;;6.10;5.43;;;;;;;;;;2092507;28;20175;-66
2022/07/24 02:19:46;;;;;;;6.72;6.13;;;;;;;;;;2090258;28;20160;-64
2022/07/24 02:20:46;;;;;;;6.50;6.00;;;;;;;;;;2092849;28;20180;-66
2022/07/24 02:21:47;;;;;;;6.82;6.32;;;;;;;;;;2093518;28;20171;-66
2022/07/24 02:22:47;;;;;;;7.68;5.95;;;;;;;;;;2093338;28;20544;-66
2022/07/24 02:23:47;;;;;;;5.97;5.57;;;;;;;;;;2093315;28;20171;-67
2022/07/24 02:24:48;;;;;;;5.97;5.47;;;;;;;;;;2092472;28;20174;-66
2022/07/24 02:25:49;;;;;;;6.13;5.63;;;;;;;;;;2094012;28;20219;-67
2022/07/24 02:26:49;;;;;;;5.85;5.35;;;;;;;;;;2086197;28;20204;-65
2022/07/24 02:27:50;;;;;;;6.13;5.50;;;;;;;;;;2086338;28;20188;-67
2022/07/24 02:28:50;;;;;;;6.03;5.53;;;;;;;;;;2093935;28;20183;-66
2022/07/24 02:29:50;;;;;;;6.63;6.00;;;;;;;;;;2092901;28;20174;-66
2022/07/24 02:30:51;;;;;;;6.50;5.63;;;;;;;;;;2094845;28;20217;-67
2022/07/24 02:31:51;;;;;;;6.35;5.95;;;;;;;;;;2095435;28;20678;-66
2022/07/24 02:32:52;;;;;;;6.20;5.80;;;;;;;;;;2095345;28;20179;-66
2022/07/24 02:33:52;;;;;;;6.47;5.97;;;;;;;;;;2094850;28;20537;-64
2022/07/24 02:34:52;;;;;;;7.00;6.00;;;;;;;;;;2094134;28;20164;-65
2022/07/24 02:35:53;;;;;;;7.15;6.20;;;;;;;;;;2093806;28;20243;-66
2022/07/24 02:36:53;;;;;;;6.70;6.10;;;;;;;;;;2085263;28;20191;-66
2022/07/24 02:37:53;;;;;;;5.90;5.38;;;;;;;;;;2087005;28;20259;-66
2022/07/24 02:38:54;;;;;;;5.80;5.32;;;;;;;;;;2092462;28;20159;-67
2022/07/24 02:39:54;;;;;;;6.00;5.50;;;;;;;;;;2091500;28;20195;-65
2022/07/24 02:40:54;;;;;;;6.30;5.90;;;;;;;;;;2091050;28;20203;-66
2022/07/24 02:41:55;;;;;;;5.88;5.45;;;;;;;;;;2083019;28;20183;-67
2022/07/24 02:42:55;;;;;;;5.82;5.32;;;;;;;;;;2082915;28;20171;-66
2022/07/24 02:43:55;;;;;;;6.68;6.15;;;;;;;;;;2091368;28;20693;-65
2022/07/24 02:44:56;;;;;;;5.82;5.35;;;;;;;;;;2091154;28;20541;-65
2022/07/24 02:45:56;;;;;;;6.13;5.72;;;;;;;;;;2090809;28;20616;-64
2022/07/24 02:46:56;;;;;;;6.55;5.95;;;;;;;;;;2090693;28;20168;-63
2022/07/24 02:47:57;;;;;;;6.63;6.03;;;;;;;;;;2081901;28;20239;-66
2022/07/24 02:48:57;;;;;;;6.05;5.55;;;;;;;;;;2081968;28;20256;-66
2022/07/24 02:49:58;;;;;;;6.05;5.65;;;;;;;;;;2090592;28;20182;-66
2022/07/24 02:50:58;;;;;;;6.88;6.28;;;;;;;;;;2090569;28;20195;-65
2022/07/24 02:51:59;;;;;;;6.30;5.72;;;;;;;;;;2090645;28;20583;-65
2022/07/24 02:52:59;;;;;;;6.88;6.07;;;;;;;;;;2090949;28;20526;-66
2022/07/24 02:53:59;;;;;;;5.50;5.03;;;;;;;;;;2081351;28;20164;-63
2022/07/24 02:55:00;;;;;;;6.30;5.80;;;;;;;;;;2082021;28;20616;-65
2022/07/24 02:56:00;;;;;;;8.18;6.13;;;;;;;;;;2091126;28;20180;-65
2022/07/24 02:57:00;;;;;;;6.43;5.82;;;;;;;;;;2082598;28;20193;-64
2022/07/24 02:58:01;;;;;;;6.43;5.93;;;;;;;;;;2083038;28;20164;-65
2022/07/24 02:59:01;;;;;;;6.32;5.82;;;;;;;;;;2090605;28;20702;-67
2022/07/24 03:00:03;;;;;;;6.18;5.63;;;;;;;;;;2084152;28;20192;-66
2022/07/24 03:01:04;;;;;;;7.13;6.43;;;;;;;;;;2091436;28;20222;-65
2022/07/24 03:02:04;;;;;;;6.60;6.00;;;;;;;;;;2082528;28;20172;-66
2022/07/24 03:03:04;;;;;;;6.63;6.00;;;;;;;;;;2082357;28;20237;-65
2022/07/24 03:04:05;;;;;;;6.60;5.88;;;;;;;;;;2090056;28;20167;-65
2022/07/24 03:05:06;;;;;;;6.72;6.25;;;;;;;;;;2090356;28;20174;-66
2022/07/24 03:06:06;;;;;;;6.20;5.70;;;;;;;;;;2091030;28;20176;-66
2022/07/24 03:07:06;;;;;;;7.18;6.57;;;;;;;;;;2090754;28;20544;-66
2022/07/24 03:08:07;;;;;;;6.30;5.63;;;;;;;;;;2090796;28;20206;-65
2022/07/24 03:09:07;;;;;;;5.80;5.30;;;;;;;;;;2090568;28;20163;-63
2022/07/24 03:10:08;;;;;;;5.97;5.57;;;;;;;;;;2090687;28;20187;-65
2022/07/24 03:11:08;;;;;;;6.10;5.70;;;;;;;;;;2081653;28;20199;-66
2022/07/24 03:12:09;;;;;;;6.72;6.22;;;;;;;;;;2082198;28;20303;-65
2022/07/24 03:13:09;;;;;;;6.38;5.88;;;;;;;;;;2091128;28;20220;-65
2022/07/24 03:14:09;;;;;;;5.93;5.45;;;;;;;;;;2090225;28;20183;-66
2022/07/24 03:15:11;;;;;;;7.70;5.57;;;;;;;;;;2081882;28;20753;-64
2022/07/24 03:16:11;;;;;;;6.28;5.85;;;;;;;;;;2082589;28;20203;-64
2022/07/24 03:17:12;;;;;;;6.70;6.05;;;;;;;;;;2091588;28;20205;-66
2022/07/24 03:18:12;;;;;;;6.05;5.55;;;;;;;;;;2083170;28;20291;-65
2022/07/24 03:19:12;;;;;;;6.57;5.90;;;;;;;;;;2081811;28;20178;-65
2022/07/24 03:20:12;;;;;;;6.40;5.90;;;;;;;;;;2086583;28;20164;-65
2022/07/24 03:21:14;;;;;;;5.90;5.50;;;;;;;;;;2091509;28;20752;-67
2022/07/24 03:22:14;;;;;;;5.85;5.35;;;;;;;;;;2091372;28;20172;-67
2022/07/24 03:23:14;;;;;;;6.63;5.88;;;;;;;;;;2083032;28;20198;-66
2022/07/24 03:24:15;;;;;;;6.53;5.97;;;;;;;;;;2073603;28;20256;-66
2022/07/24 03:25:16;;;;;;;6.03;5.53;;;;;;;;;;2082573;28;20240;-66
2022/07/24 03:26:16;;;;;;;6.13;5.53;;;;;;;;;;2091647;28;20594;-67
2022/07/24 03:27:16;;;;;;;6.32;5.82;;;;;;;;;;2092465;28;20172;-65
2022/07/24 03:28:16;;;;;;;6.85;6.35;;;;;;;;;;2091922;28;20183;-63
2022/07/24 03:29:17;;;;;;;6.35;5.80;;;;;;;;;;2083317;28;20219;-65
2022/07/24 03:30:18;;;;;;;6.45;5.93;;;;;;;;;;2085377;28;20175;-65
2022/07/24 03:31:18;;;;;;;6.35;5.82;;;;;;;;;;2092045;28;20199;-67
2022/07/24 03:32:18;;;;;;;6.40;6.00;;;;;;;;;;2082840;28;20645;-67
2022/07/24 03:33:18;;;;;;;6.20;5.80;;;;;;;;;;2082423;28;20230;-66
2022/07/24 03:34:19;;;;;;;6.57;6.18;;;;;;;;;;2090965;28;20171;-66
2022/07/24 03:35:19;;;;;;;6.28;5.78;;;;;;;;;;2095931;28;20172;-66
2022/07/24 03:36:20;;;;;;;6.55;6.00;;;;;;;;;;2098350;28;20176;-66
2022/07/24 03:37:20;;;;;;;6.28;5.78;;;;;;;;;;2098392;28;20227;-68
2022/07/24 03:38:20;;;;;;;6.95;6.35;;;;;;;;;;2098030;28;20177;-67
2022/07/24 03:39:20;;;;;;;8.40;6.22;;;;;;;;;;2098540;28;20171;-66
2022/07/24 03:40:21;;;;;;;8.20;6.40;;;;;;;;;;2097348;28;20198;-67
2022/07/24 03:41:21;;;;;;;5.82;5.45;;;;;;;;;;2098331;28;20221;-68
2022/07/24 03:42:21;;;;;;;5.95;5.57;;;;;;;;;;2097921;28;20168;-67
2022/07/24 03:43:22;;;;;;;5.82;5.40;;;;;;;;;;2097687;28;20218;-66
2022/07/24 03:44:22;;;;;;;6.60;6.05;;;;;;;;;;2087793;28;20202;-67
2022/07/24 03:45:22;;;;;;;6.00;5.60;;;;;;;;;;2088344;28;20212;-68
2022/07/24 03:46:23;;;;;;;6.28;5.88;;;;;;;;;;2088790;28;20168;-67
2022/07/24 03:47:23;;;;;;;5.82;5.43;;;;;;;;;;2085216;28;20168;-67
2022/07/24 03:48:24;;;;;;;6.20;5.72;;;;;;;;;;2083746;28;20176;-66
2022/07/24 03:49:24;;;;;;;7.35;5.90;;;;;;;;;;2074647;28;20177;-64
2022/07/24 03:50:25;;;;;;;6.05;5.55;;;;;;;;;;2084601;28;20234;-66
2022/07/24 03:51:25;;;;;;;6.07;5.60;;;;;;;;;;2091691;28;20187;-67
2022/07/24 03:52:25;;;;;;;6.50;6.03;;;;;;;;;;2091388;28;20251;-67
2022/07/24 03:53:26;;;;;;;6.63;6.03;;;;;;;;;;2091823;28;20171;-66
2022/07/24 03:54:26;;;;;;;6.15;5.60;;;;;;;;;;2090586;28;20519;-66
2022/07/24 03:55:26;;;;;;;6.82;6.22;;;;;;;;;;2091185;28;20214;-65
2022/07/24 03:56:27;;;;;;;8.30;7.60;;;;;;;;;;2091558;28;20175;-66
2022/07/24 03:57:27;;;;;;;8.02;6.00;;;;;;;;;;2092074;28;20168;-66
2022/07/24 03:58:27;;;;;;;6.53;5.43;;;;;;;;;;2091689;28;20175;-68
2022/07/24 03:59:28;;;;;;;6.35;5.88;;;;;;;;;;2091916;28;20590;-67
2022/07/24 04:00:28;;;;;;;6.15;5.63;;;;;;;;;;2092312;28;20171;-65
2022/07/24 04:01:28;;;;;;;8.77;6.95;;;;;;;;;;2093844;28;20223;-66
2022/07/24 04:02:29;;;;;;;7.43;6.78;;;;;;;;;;2091660;28;20225;-67
2022/07/24 04:03:29;;;;;;;7.43;6.80;;;;;;;;;;2083011;28;20700;-64
2022/07/24 04:04:29;;;;;;;7.00;6.43;;;;;;;;;;2081475;28;20655;-66
2022/07/24 04:05:30;;;;;;;7.72;7.10;;;;;;;;;;2081834;28;20204;-65
2022/07/24 04:06:31;;;;;;;8.30;7.38;;;;;;;;;;2082985;28;20176;-66
2022/07/24 04:07:32;;;;;;;7.88;7.20;;;;;;;;;;2093024;28;20192;-66
2022/07/24 04:08:32;;;;;;;6.40;5.80;;;;;;;;;;2091988;28;20562;-67
2022/07/24 04:09:33;;;;;;;6.70;6.13;;;;;;;;;;2091161;28;20214;-65
2022/07/24 04:10:33;;;;;;;6.65;6.15;;;;;;;;;;2090534;28;20186;-65
2022/07/24 04:11:33;;;;;;;7.45;6.78;;;;;;;;;;2083345;28;20164;-65
2022/07/24 04:12:34;;;;;;;7.05;6.00;;;;;;;;;;2073876;28;20243;-65
2022/07/24 04:13:34;;;;;;;7.28;6.68;;;;;;;;;;2081511;28;20225;-66
2022/07/24 04:14:34;;;;;;;6.15;5.75;;;;;;;;;;2090639;28;20176;-67
2022/07/24 04:15:35;;;;;;;6.47;6.05;;;;;;;;;;2091659;28;20752;-66
2022/07/24 04:16:35;;;;;;;6.78;6.28;;;;;;;;;;2091347;28;20640;-65
2022/07/24 04:17:40;;;;;;;7.38;6.50;;;;;;;;;;2091714;28;20469;-67
2022/07/24 04:18:40;;;;;;;6.97;6.43;;;;;;;;;;2091641;28;20170;-68
2022/07/24 04:19:41;;;;;;;7.13;6.53;;;;;;;;;;2085106;28;20191;-66
2022/07/24 04:20:41;;;;;;;6.70;6.15;;;;;;;;;;2089348;28;20229;-66
2022/07/24 04:21:41;;;;;;;6.60;6.10;;;;;;;;;;2091435;28;20664;-66
2022/07/24 04:22:42;;;;;;;6.53;6.07;;;;;;;;;;2091466;28;20191;-65
2022/07/24 04:23:42;;;;;;;7.07;6.47;;;;;;;;;;2091250;28;20165;-64
2022/07/24 04:24:43;;;;;;;7.22;6.63;;;;;;;;;;2090618;28;20183;-67
2022/07/24 04:25:43;;;;;;;8.88;6.80;;;;;;;;;;2091502;28;20174;-66
2022/07/24 04:26:43;;;;;;;6.35;5.82;;;;;;;;;;2082745;28;20183;-68
2022/07/24 04:27:44;;;;;;;7.20;6.57;;;;;;;;;;2082344;28;20235;-66
2022/07/24 04:28:44;;;;;;;6.22;5.70;;;;;;;;;;2091010;28;20167;-66
2022/07/24 04:29:45;;;;;;;6.63;5.95;;;;;;;;;;2081944;28;20214;-65
2022/07/24 04:30:45;;;;;;;6.93;6.28;;;;;;;;;;2081756;28;20199;-68
2022/07/24 04:31:45;;;;;;;6.28;5.53;;;;;;;;;;2091127;28;20286;-66
2022/07/24 04:32:46;;;;;;;6.07;5.45;;;;;;;;;;2090839;28;20172;-66
2022/07/24 04:33:46;;;;;;;7.10;6.50;;;;;;;;;;2090309;28;20167;-64
2022/07/24 04:34:46;;;;;;;6.07;5.55;;;;;;;;;;2089901;28;20207;-64
2022/07/24 04:35:47;;;;;;;6.75;5.63;;;;;;;;;;2081885;28;20168;-64
2022/07/24 04:36:47;;;;;;;6.70;6.05;;;;;;;;;;2082333;28;20164;-66
2022/07/24 04:37:47;;;;;;;6.60;6.05;;;;;;;;;;2090949;28;20178;-65
2022/07/24 04:38:48;;;;;;;6.15;5.68;;;;;;;;;;2090890;28;20163;-64
2022/07/24 04:39:48;;;;;;;6.90;6.25;;;;;;;;;;2090523;28;20253;-66
2022/07/24 04:40:49;;;;;;;7.53;6.75;;;;;;;;;;2090348;28;20164;-66
2022/07/24 04:41:49;;;;;;;5.80;5.30;;;;;;;;;;2081658;28;20233;-67
2022/07/24 04:42:49;;;;;;;5.45;4.95;;;;;;;;;;2082401;28;20171;-67
2022/07/24 04:43:50;;;;;;;6.75;5.40;;;;;;;;;;2094201;28;20206;-67
2022/07/24 04:44:50;;;;;;;6.15;5.65;;;;;;;;;;2093889;28;20168;-68
2022/07/24 04:45:50;;;;;;;6.03;5.53;;;;;;;;;;2096744;28;20186;-66
2022/07/24 04:46:51;;;;;;;6.43;5.93;;;;;;;;;;2097991;28;20171;-67
2022/07/24 04:47:51;;;;;;;6.18;5.55;;;;;;;;;;2097488;28;20171;-66
2022/07/24 04:48:51;;;;;;;6.80;5.90;;;;;;;;;;2097089;28;20432;-66
2022/07/24 04:49:52;;;;;;;7.78;7.00;;;;;;;;;;2096077;28;20183;-67
2022/07/24 04:50:52;;;;;;;6.25;5.65;;;;;;;;;;2085379;28;20196;-66
2022/07/24 04:51:52;;;;;;;6.07;5.57;;;;;;;;;;2086108;28;20208;-67
2022/07/24 04:52:53;;;;;;;5.85;5.40;;;;;;;;;;2093486;28;20217;-66
2022/07/24 04:53:53;;;;;;;5.47;5.07;;;;;;;;;;2092826;28;20199;-65
2022/07/24 04:54:53;;;;;;;5.50;5.10;;;;;;;;;;2090988;28;20259;-64
2022/07/24 04:55:55;;;;;;;5.50;5.05;;;;;;;;;;2091942;28;20296;-65
2022/07/24 04:56:55;;;;;;;5.57;4.95;;;;;;;;;;2089426;28;20710;-65
2022/07/24 04:57:56;;;;;;;5.65;5.13;;;;;;;;;;2082109;28;20172;-65
2022/07/24 04:58:56;;;;;;;5.32;4.93;;;;;;;;;;2075333;28;20201;-66
2022/07/24 04:59:57;;;;;;;5.32;4.82;;;;;;;;;;2081188;28;20199;-66
2022/07/24 05:00:58;;;;;;;5.20;4.80;;;;;;;;;;2089905;28;20199;-66
2022/07/24 05:01:58;;;;;;;5.85;5.30;;;;;;;;;;2090682;28;20159;-65
2022/07/24 05:02:58;;;;;;;4.90;4.43;;;;;;;;;;2090363;28;20170;-66
2022/07/24 05:03:59;;;;;;;5.32;4.78;;;;;;;;;;2089878;28;20184;-63
2022/07/24 05:04:59;;;;;;;5.20;4.85;;;;;;;;;;2090156;28;20170;-65
2022/07/24 05:05:59;;;;;;;5.05;4.75;;;;;;;;;;2081506;28;20267;-66
2022/07/24 05:07:00;;;;;;;5.68;5.18;;;;;;;;;;2081795;28;20192;-66
2022/07/24 05:08:01;;;;;;;4.80;4.40;;;;;;;;;;2090047;28;20188;-66
2022/07/24 05:09:01;;;;;;;5.68;5.18;;;;;;;;;;2092140;28;20159;-66
2022/07/24 05:10:02;;;;;;;5.00;4.70;;;;;;;;;;2091202;28;20163;-67
2022/07/24 05:11:03;;;;;;;7.78;5.05;;;;;;;;;;2081615;28;20208;-65
2022/07/24 05:12:03;;;;;;;4.72;4.35;;;;;;;;;;2073653;28;20744;-66
2022/07/24 05:13:04;;;;;;;5.50;4.70;;;;;;;;;;2080102;28;20200;-63
2022/07/24 05:14:04;;;;;;;5.22;4.82;;;;;;;;;;2080523;28;20669;-67
2022/07/24 05:15:05;;;;;;;5.00;4.50;;;;;;;;;;2075908;28;20594;-65
2022/07/24 05:16:05;;;;;;;4.53;4.18;;;;;;;;;;2081848;28;20172;-65
2022/07/24 05:17:06;;;;;;;4.90;4.53;;;;;;;;;;2082639;28;20161;-66
2022/07/24 05:18:06;;;;;;;4.63;4.28;;;;;;;;;;2089814;28;20175;-66
2022/07/24 05:19:06;;;;;;;5.57;5.03;;;;;;;;;;2089615;28;20226;-67
2022/07/24 05:20:07;;;;;;;5.22;4.53;;;;;;;;;;2089883;28;20168;-64
2022/07/24 05:21:08;;;;;;;6.30;4.72;;;;;;;;;;2089983;28;20198;-65
2022/07/24 05:22:08;;;;;;;5.20;4.75;;;;;;;;;;2081352;28;20703;-65
2022/07/24 05:23:09;;;;;;;4.78;4.47;;;;;;;;;;2081347;28;20736;-65
2022/07/24 05:24:09;;;;;;;10.00;4.50;;;;;;;;;;2089466;28;20221;-65
2022/07/24 05:25:10;;;;;;;5.40;4.90;;;;;;;;;;2090484;28;20195;-66
2022/07/24 05:26:10;;;;;;;4.85;4.45;;;;;;;;;;2090578;28;20191;-65
2022/07/24 05:27:10;;;;;;;5.20;4.70;;;;;;;;;;2090345;28;20167;-65
2022/07/24 05:28:11;;;;;;;4.63;4.32;;;;;;;;;;2090557;28;20168;-67
2022/07/24 05:29:11;;;;;;;4.82;4.40;;;;;;;;;;2090385;28;20242;-65
2022/07/24 05:30:11;;;;;;;5.22;4.70;;;;;;;;;;2082227;28;20259;-65
2022/07/24 05:31:12;;;;;;;5.00;4.70;;;;;;;;;;2074290;28;20650;-64
2022/07/24 05:32:12;;;;;;;5.28;4.80;;;;;;;;;;2081724;28;20208;-67
2022/07/24 05:33:13;;;;;;;5.07;4.53;;;;;;;;;;2082877;28;20319;-64
2022/07/24 05:34:13;;;;;;;4.60;4.30;;;;;;;;;;2090274;28;20245;-68
2022/07/24 05:35:13;;;;;;;4.70;4.30;;;;;;;;;;2091238;28;20168;-65
2022/07/24 05:36:14;;;;;;;4.63;4.32;;;;;;;;;;2091305;28;20173;-66
2022/07/24 05:37:14;;;;;;;4.43;4.13;;;;;;;;;;2073413;28;20192;-66
2022/07/24 05:38:15;;;;;;;5.80;4.47;;;;;;;;;;2073957;28;20169;-67
2022/07/24 05:39:15;;;;;;;4.32;4.13;;;;;;;;;;2083051;28;20164;-65
2022/07/24 05:40:16;;;;;;;4.72;4.18;;;;;;;;;;2082031;28;20242;-63
2022/07/24 05:41:16;;;;;;;4.68;4.28;;;;;;;;;;2079968;28;20196;-65
2022/07/24 05:42:17;;;;;;;4.60;4.15;;;;;;;;;;2080510;28;20203;-66
2022/07/24 05:43:17;;;;;;;7.13;5.20;;;;;;;;;;2085119;28;20188;-66
2022/07/24 05:44:17;;;;;;;4.38;3.70;;;;;;;;;;2078730;28;20681;-65
2022/07/24 05:45:18;;;;;;;4.57;4.20;;;;;;;;;;2079958;28;20306;-68
2022/07/24 05:46:18;;;;;;;5.38;4.45;;;;;;;;;;2090353;28;20222;-66
2022/07/24 05:47:18;;;;;;;4.63;4.22;;;;;;;;;;2091540;28;20191;-67
2022/07/24 05:48:19;;;;;;;4.70;3.67;;;;;;;;;;2091125;28;20178;-66
2022/07/24 05:49:19;;;;;;;4.15;3.80;;;;;;;;;;2090541;28;20179;-66
2022/07/24 05:50:19;;;;;;;4.13;3.83;;;;;;;;;;2090439;28;20183;-66
2022/07/24 05:51:20;;;;;;;4.50;4.20;;;;;;;;;;2082019;28;20339;-66
2022/07/24 05:52:20;;;;;;;5.68;4.28;;;;;;;;;;2082412;28;20269;-66
2022/07/24 05:53:20;;;;;;;4.40;4.00;;;;;;;;;;2091373;28;20166;-67
2022/07/24 05:54:21;;;;;;;4.75;4.45;;;;;;;;;;2089706;28;20170;-66
2022/07/24 05:55:21;;;;;;;5.78;4.72;;;;;;;;;;2091014;28;20176;-66
2022/07/24 05:56:21;;;;;;;5.07;4.50;;;;;;;;;;2081848;28;20645;-65
2022/07/24 05:57:22;;;;;;;4.40;4.10;;;;;;;;;;2082441;28;20259;-69
2022/07/24 05:58:22;;;;;;;4.60;4.20;;;;;;;;;;2091553;28;20722;-67
2022/07/24 05:59:22;;;;;;;4.55;4.20;;;;;;;;;;2090922;28;20176;-66
2022/07/24 06:00:23;;;;;;;5.07;3.67;;;;;;;;;;2091548;28;20250;-68
2022/07/24 06:01:23;;;;;;;4.32;3.92;;;;;;;;;;2091379;28;20203;-66
2022/07/24 06:02:24;;;;;;;4.85;4.45;;;;;;;;;;2091123;28;20175;-66